createdAt,value
2023-02-15T00:00:12.023Z,71.90
2023-02-15T00:02:39.463Z,60.60
2023-02-15T00:05:07.376Z,52.43
2023-02-15T00:07:35.039Z,56.97
2023-02-15T00:10:02.541Z,57.70
2023-02-15T00:12:29.725Z,59.13
2023-02-15T00:14:56.934Z,55.37
2023-02-15T00:17:24.081Z,63.17
2023-02-15T00:19:51.431Z,60.70
2023-02-15T00:22:18.815Z,62.50
2023-02-15T00:24:45.956Z,59.30
2023-02-15T00:27:14.054Z,56.07
2023-02-15T00:29:42.019Z,50.73
2023-02-15T00:32:09.297Z,57.07
2023-02-15T00:34:36.571Z,64.87
2023-02-15T00:37:03.859Z,61.93
2023-02-15T00:39:31.038Z,60.87
2023-02-15T00:41:58.213Z,60.33
2023-02-15T00:44:25.663Z,80.03
2023-02-15T00:46:52.869Z,74.50
2023-02-15T00:49:20.029Z,48.60
2023-02-15T00:51:47.260Z,38.50
2023-02-15T00:54:14.505Z,39.40
2023-02-15T00:56:41.655Z,40.23
2023-02-15T00:59:10.638Z,47.43
2023-02-15T01:01:37.831Z,50.03
2023-02-15T01:04:05.271Z,48.07
2023-02-15T01:06:32.959Z,46.13
2023-02-15T01:09:00.223Z,45.43
2023-02-15T01:11:27.400Z,45.97
2023-02-15T01:13:58.025Z,43.73
2023-02-15T01:16:27.251Z,39.93
2023-02-15T01:18:55.818Z,35.20
2023-02-15T01:21:25.580Z,38.67
2023-02-15T01:23:52.933Z,40.10
2023-02-15T01:26:20.409Z,42.27
2023-02-15T01:28:47.757Z,46.23
2023-02-15T01:31:18.376Z,47.70
2023-02-15T01:33:46.683Z,55.07
2023-02-15T01:36:14.599Z,63.27
2023-02-15T01:38:41.806Z,63.53
2023-02-15T01:41:21.449Z,62.83
2023-02-15T01:44:00.930Z,65.67
2023-02-15T01:46:48.564Z,63.93
2023-02-15T01:49:22.234Z,61.57
2023-02-15T01:51:52.477Z,49.67
2023-02-15T01:54:27.382Z,49.53
2023-02-15T01:56:59.534Z,49.40
2023-02-15T01:59:27.306Z,45.40
2023-02-15T02:01:58.764Z,42.50
2023-02-15T02:04:38.520Z,42.47
2023-02-15T02:07:06.962Z,41.73
2023-02-15T02:09:34.153Z,47.03
2023-02-15T02:12:02.095Z,41.80
2023-02-15T02:14:29.642Z,47.67
2023-02-15T02:17:02.346Z,42.60
2023-02-15T02:20:04.866Z,45.63
2023-02-15T02:22:49.363Z,46.23
2023-02-15T02:25:35.535Z,46.00
2023-02-15T02:28:47.992Z,42.50
2023-02-15T02:31:54.351Z,38.30
2023-02-15T02:34:51.673Z,40.37
2023-02-15T02:37:21.648Z,32.77
2023-02-15T02:40:18.620Z,34.20
2023-02-15T02:42:57.153Z,33.07
2023-02-15T02:45:33.985Z,28.07
2023-02-15T02:48:06.974Z,29.90
2023-02-15T02:50:34.521Z,28.63
2023-02-15T02:53:02.098Z,29.53
2023-02-15T02:55:46.466Z,29.57
2023-02-15T02:58:25.810Z,27.63
2023-02-15T03:01:02.786Z,27.40
2023-02-15T03:03:51.182Z,27.23
2023-02-15T03:06:25.853Z,27.27
2023-02-15T03:08:59.354Z,25.77
2023-02-15T03:11:27.239Z,25.87
2023-02-15T03:13:56.477Z,26.33
2023-02-15T03:16:27.190Z,28.90
2023-02-15T03:19:17.654Z,28.93
2023-02-15T03:22:10.590Z,35.63
2023-02-15T03:25:01.068Z,31.87
2023-02-15T03:27:35.619Z,30.57
2023-02-15T03:30:04.316Z,33.07
2023-02-15T03:32:35.703Z,31.20
2023-02-15T03:35:03.437Z,30.50
2023-02-15T03:37:45.087Z,31.00
2023-02-15T03:40:50.557Z,30.57
2023-02-15T03:43:43.768Z,32.63
2023-02-15T03:46:36.792Z,36.03
2023-02-15T03:49:47.158Z,40.60
2023-02-15T03:52:17.141Z,39.63
2023-02-15T03:54:47.380Z,38.53
2023-02-15T03:57:40.801Z,42.70
2023-02-15T04:00:43.791Z,42.53
2023-02-15T04:03:16.900Z,38.40
2023-02-15T04:05:45.774Z,40.07
2023-02-15T04:08:14.033Z,41.07
2023-02-15T04:10:53.499Z,42.83
2023-02-15T04:13:40.999Z,47.93
2023-02-15T04:16:08.737Z,47.40
2023-02-15T04:19:00.329Z,46.50
2023-02-15T04:21:48.968Z,42.80
2023-02-15T04:24:35.392Z,37.30
2023-02-15T04:27:04.339Z,41.80
2023-02-15T04:29:32.218Z,41.27
2023-02-15T04:32:01.199Z,37.50
2023-02-15T04:34:28.326Z,37.83
2023-02-15T04:36:55.551Z,33.97
2023-02-15T04:39:22.722Z,37.87
2023-02-15T04:41:50.901Z,37.00
2023-02-15T04:44:18.055Z,37.30
2023-02-15T04:46:45.702Z,40.17
2023-02-15T04:49:13.037Z,40.77
2023-02-15T04:51:40.197Z,40.13
2023-02-15T04:54:07.455Z,38.90
2023-02-15T04:56:36.074Z,38.00
2023-02-15T04:59:03.642Z,39.77
2023-02-15T05:01:31.041Z,38.47
2023-02-15T05:03:58.585Z,37.77
2023-02-15T05:06:25.947Z,37.50
2023-02-15T05:08:54.230Z,35.57
2023-02-15T05:11:21.506Z,37.07
2023-02-15T05:13:48.713Z,38.63
2023-02-15T05:16:16.124Z,39.27
2023-02-15T05:18:43.468Z,36.17
2023-02-15T05:21:11.971Z,39.37
2023-02-15T05:23:39.469Z,37.63
2023-02-15T05:26:25.958Z,36.93
2023-02-15T05:28:53.254Z,43.23
2023-02-15T05:31:21.527Z,40.57
2023-02-15T05:33:49.206Z,39.87
2023-02-15T05:36:16.453Z,42.83
2023-02-15T05:38:43.971Z,42.10
2023-02-15T05:41:12.640Z,40.07
2023-02-15T05:43:40.185Z,40.10
2023-02-15T05:46:08.232Z,45.47
2023-02-15T05:48:36.374Z,57.00
2023-02-15T05:51:09.698Z,57.63
2023-02-15T05:53:39.288Z,58.57
2023-02-15T05:56:08.441Z,55.53
2023-02-15T05:58:41.150Z,50.13
2023-02-15T06:01:13.786Z,51.90
2023-02-15T06:03:41.824Z,48.37
2023-02-15T06:06:09.673Z,46.70
2023-02-15T06:08:38.381Z,47.47
2023-02-15T06:11:06.924Z,44.93
2023-02-15T06:13:37.240Z,42.27
2023-02-15T06:16:06.443Z,41.23
2023-02-15T06:18:34.194Z,41.73
2023-02-15T06:21:01.510Z,44.13
2023-02-15T06:23:29.193Z,41.17
2023-02-15T06:25:56.502Z,38.57
2023-02-15T06:28:23.698Z,37.30
2023-02-15T06:30:50.997Z,39.03
2023-02-15T06:33:18.396Z,38.37
2023-02-15T06:35:46.836Z,41.70
2023-02-15T06:38:14.031Z,42.13
2023-02-15T06:40:41.236Z,43.80
2023-02-15T06:43:08.491Z,39.47
2023-02-15T06:45:36.021Z,38.90
2023-02-15T06:48:03.195Z,39.53
2023-02-15T06:50:30.570Z,36.40
2023-02-15T06:52:59.461Z,36.63
2023-02-15T06:55:27.260Z,34.03
2023-02-15T06:57:54.485Z,31.43
2023-02-15T07:00:23.439Z,31.93
2023-02-15T07:03:00.810Z,32.07
2023-02-15T07:05:32.604Z,29.63
2023-02-15T07:08:00.802Z,31.83
2023-02-15T07:10:28.853Z,31.73
2023-02-15T07:12:57.143Z,36.17
2023-02-15T07:15:24.669Z,34.23
2023-02-15T07:17:55.779Z,39.60
2023-02-15T07:20:24.379Z,43.97
2023-02-15T07:22:52.183Z,38.67
2023-02-15T07:25:19.801Z,47.07
2023-02-15T07:27:47.227Z,46.43
2023-02-15T07:30:17.195Z,42.53
2023-02-15T07:33:05.912Z,45.37
2023-02-15T07:35:34.160Z,45.10
2023-02-15T07:38:02.482Z,47.33
2023-02-15T07:40:30.045Z,51.43
2023-02-15T07:43:00.354Z,47.83
2023-02-15T07:45:28.257Z,42.37
2023-02-15T07:47:55.602Z,42.27
2023-02-15T07:50:23.974Z,45.43
2023-02-15T07:52:51.094Z,52.33
2023-02-15T07:55:19.829Z,51.03
2023-02-15T07:57:49.670Z,63.23
2023-02-15T08:00:25.044Z,61.77
2023-02-15T08:03:14.442Z,66.13
2023-02-15T08:05:43.370Z,50.27
2023-02-15T08:08:31.258Z,49.10
2023-02-15T08:11:26.546Z,52.97
2023-02-15T08:14:19.918Z,55.23
2023-02-15T08:17:00.988Z,54.53
2023-02-15T08:19:36.035Z,55.80
2023-02-15T08:22:08.521Z,50.93
2023-02-15T08:24:40.920Z,48.50
2023-02-15T08:27:10.221Z,43.97
2023-02-15T08:29:38.928Z,41.47
2023-02-15T08:32:09.182Z,45.17
2023-02-15T08:34:40.329Z,43.30
2023-02-15T08:37:07.764Z,42.43
2023-02-15T08:39:35.667Z,45.70
2023-02-15T08:42:02.920Z,44.03
2023-02-15T08:44:30.956Z,46.47
2023-02-15T08:47:03.894Z,48.17
2023-02-15T08:49:31.216Z,44.03
2023-02-15T08:51:58.584Z,39.23
2023-02-15T08:54:25.793Z,54.97
2023-02-15T08:56:52.933Z,42.10
2023-02-15T08:59:24.483Z,46.37
2023-02-15T09:01:53.241Z,49.47
2023-02-15T09:04:21.712Z,37.17
2023-02-15T09:06:51.097Z,39.43
2023-02-15T09:09:20.426Z,40.17
2023-02-15T09:11:53.445Z,42.80
2023-02-15T09:14:25.782Z,40.00
2023-02-15T09:16:54.181Z,38.07
2023-02-15T09:19:25.589Z,37.57
2023-02-15T09:21:53.057Z,43.37
2023-02-15T09:24:20.740Z,43.10
2023-02-15T09:26:49.652Z,38.83
2023-02-15T09:29:18.153Z,42.80
2023-02-15T09:31:48.200Z,40.87
2023-02-15T09:34:19.832Z,44.10
2023-02-15T09:36:47.939Z,42.70
2023-02-15T09:39:18.541Z,37.97
2023-02-15T09:42:16.622Z,40.23
2023-02-15T09:45:05.457Z,35.50
2023-02-15T09:48:05.207Z,36.67
2023-02-15T09:50:58.883Z,41.60
2023-02-15T09:53:41.580Z,35.40
2023-02-15T09:56:21.267Z,36.27
2023-02-15T09:59:13.090Z,43.90
2023-02-15T10:02:00.712Z,37.87
2023-02-15T10:04:33.977Z,39.77
2023-02-15T10:07:26.213Z,37.20
2023-02-15T10:10:08.788Z,37.77
2023-02-15T10:12:54.339Z,36.70
2023-02-15T10:15:53.254Z,45.33
2023-02-15T10:18:39.054Z,39.17
2023-02-15T10:21:11.910Z,46.00
2023-02-15T10:24:07.169Z,41.77
2023-02-15T10:26:48.726Z,33.53
2023-02-15T10:29:40.357Z,34.63
2023-02-15T10:32:27.579Z,37.00
2023-02-15T10:35:08.282Z,30.93
2023-02-15T10:38:01.146Z,33.60
2023-02-15T10:41:03.261Z,30.80
2023-02-15T10:43:48.670Z,32.40
2023-02-15T10:46:22.639Z,35.33
2023-02-15T10:49:08.006Z,33.97
2023-02-15T10:51:41.821Z,31.40
2023-02-15T10:54:46.926Z,31.70
2023-02-15T10:57:37.898Z,31.17
2023-02-15T11:00:15.452Z,32.10
2023-02-15T11:03:18.992Z,31.97
2023-02-15T11:06:07.040Z,30.00
2023-02-15T11:08:38.847Z,33.33
2023-02-15T11:11:10.832Z,32.43
2023-02-15T11:13:48.601Z,30.93
2023-02-15T11:16:19.328Z,33.60
2023-02-15T11:19:05.184Z,29.87
2023-02-15T11:21:42.208Z,32.23
2023-02-15T11:24:19.557Z,30.30
2023-02-15T11:27:00.886Z,35.73
2023-02-15T11:29:54.503Z,29.20
2023-02-15T11:32:33.619Z,26.97
2023-02-15T11:35:21.104Z,27.63
2023-02-15T11:37:50.414Z,27.53
2023-02-15T11:40:50.801Z,26.60
2023-02-15T11:43:52.999Z,26.37
2023-02-15T11:46:22.752Z,27.63
2023-02-15T11:48:50.523Z,30.60
2023-02-15T11:51:23.814Z,51.63
2023-02-15T11:53:52.905Z,26.37
2023-02-15T11:56:29.157Z,35.50
2023-02-15T11:59:10.654Z,26.17
2023-02-15T12:01:48.450Z,27.57
2023-02-15T12:04:36.082Z,34.87
2023-02-15T12:07:26.752Z,33.47
2023-02-15T12:09:54.014Z,25.13
2023-02-15T12:12:28.333Z,27.63
2023-02-15T12:15:02.874Z,30.27
2023-02-15T12:17:33.855Z,21.93
2023-02-15T12:20:29.285Z,23.60
2023-02-15T12:23:06.839Z,30.03
2023-02-15T12:25:55.621Z,22.27
2023-02-15T12:28:35.512Z,22.67
2023-02-15T12:31:09.565Z,21.33
2023-02-15T12:33:43.056Z,19.73
2023-02-15T12:36:20.850Z,20.87
2023-02-15T12:39:20.836Z,20.60
2023-02-15T12:42:18.263Z,18.60
2023-02-15T12:44:58.330Z,16.57
2023-02-15T12:47:29.206Z,18.53
2023-02-15T12:50:18.191Z,17.33
2023-02-15T12:52:50.935Z,18.60
2023-02-15T12:55:27.681Z,16.93
2023-02-15T12:58:21.572Z,18.00
2023-02-15T13:00:49.072Z,17.80
2023-02-15T13:03:21.890Z,16.67
2023-02-15T13:05:53.008Z,16.03
2023-02-15T13:08:32.984Z,16.53
2023-02-15T13:11:06.551Z,14.90
2023-02-15T13:13:37.939Z,16.70
2023-02-15T13:16:13.779Z,15.70
2023-02-15T13:18:51.734Z,17.80
2023-02-15T13:21:36.476Z,15.43
2023-02-15T13:24:45.184Z,13.60
2023-02-15T13:27:18.225Z,14.00
2023-02-15T13:29:50.656Z,13.57
2023-02-15T13:32:30.290Z,12.73
2023-02-15T13:35:06.659Z,17.93
2023-02-15T13:38:07.710Z,17.63
2023-02-15T13:40:38.870Z,13.90
2023-02-15T13:43:18.827Z,13.63
2023-02-15T13:46:03.797Z,13.07
2023-02-15T13:48:47.155Z,13.67
2023-02-15T13:52:01.608Z,13.87
2023-02-15T13:54:45.114Z,14.83
2023-02-15T13:58:08.363Z,23.83
2023-02-15T14:00:50.124Z,11.97
2023-02-15T14:03:55.963Z,14.60
2023-02-15T14:06:36.557Z,15.43
2023-02-15T14:09:23.961Z,14.17
2023-02-15T14:12:12.726Z,18.10
2023-02-15T14:15:06.682Z,16.90
2023-02-15T14:18:01.560Z,16.73
2023-02-15T14:20:52.902Z,16.10
2023-02-15T14:23:21.107Z,27.00
2023-02-15T14:25:56.998Z,13.73
2023-02-15T14:28:37.267Z,24.00
2023-02-15T14:31:09.138Z,18.07
2023-02-15T14:33:39.795Z,12.90
2023-02-15T14:36:09.745Z,27.20
2023-02-15T14:39:29.356Z,20.60
2023-02-15T14:42:06.122Z,27.23
2023-02-15T14:44:47.196Z,17.43
2023-02-15T14:47:19.620Z,23.70
2023-02-15T14:49:47.222Z,20.93
2023-02-15T14:52:14.735Z,28.00
2023-02-15T14:54:41.809Z,21.00
2023-02-15T14:57:09.028Z,20.67
2023-02-15T15:00:00.121Z,34.57
2023-02-15T15:02:29.395Z,55.40
2023-02-15T15:05:10.744Z,36.73
2023-02-15T15:07:47.490Z,46.93
2023-02-15T15:10:18.236Z,49.10
2023-02-15T15:12:53.828Z,76.87
2023-02-15T15:15:33.558Z,51.47
2023-02-15T15:18:11.300Z,54.63
2023-02-15T15:20:52.265Z,48.40
2023-02-15T15:23:19.572Z,42.27
2023-02-15T15:25:53.181Z,41.23
2023-02-15T15:28:35.855Z,42.53
2023-02-15T15:31:38.736Z,28.33
2023-02-15T15:34:09.093Z,28.10
2023-02-15T15:37:01.259Z,31.27
2023-02-15T15:40:14.245Z,39.50
2023-02-15T15:42:50.460Z,72.37
2023-02-15T15:45:42.439Z,86.20
2023-02-15T15:48:21.873Z,48.73
2023-02-15T15:50:55.287Z,47.40
2023-02-15T15:53:26.566Z,69.63
2023-02-15T15:55:59.132Z,76.60
2023-02-15T15:58:32.788Z,88.23
2023-02-15T16:01:10.424Z,62.20
2023-02-15T16:03:37.839Z,58.90
2023-02-15T16:06:05.562Z,59.33
2023-02-15T16:08:37.304Z,69.17
2023-02-15T16:11:26.922Z,119.60
2023-02-15T16:13:55.106Z,87.20
2023-02-15T16:16:32.303Z,218.67
2023-02-15T16:19:00.915Z,74.67
2023-02-15T16:21:37.230Z,75.57
2023-02-15T16:24:23.196Z,66.07
2023-02-15T16:27:16.984Z,72.00
2023-02-15T16:29:44.487Z,138.27
2023-02-15T16:32:26.099Z,144.33
2023-02-15T16:35:03.277Z,169.50
2023-02-15T16:37:35.740Z,225.80
2023-02-15T16:40:03.116Z,202.60
2023-02-15T16:42:30.534Z,140.63
2023-02-15T16:45:19.475Z,96.17
2023-02-15T16:47:50.078Z,87.77
2023-02-15T16:50:24.002Z,102.03
2023-02-15T16:52:52.723Z,120.73
2023-02-15T16:55:29.577Z,131.43
2023-02-15T16:58:03.198Z,148.60
2023-02-15T17:00:35.596Z,135.40
2023-02-15T17:03:15.380Z,150.53
2023-02-15T17:05:50.352Z,144.33
2023-02-15T17:08:19.420Z,114.30
2023-02-15T17:11:11.796Z,136.07
2023-02-15T17:13:40.252Z,233.73
2023-02-15T17:16:27.836Z,185.93
2023-02-15T17:19:00.195Z,241.03
2023-02-15T17:21:34.355Z,251.03
2023-02-15T17:24:05.315Z,148.97
2023-02-15T17:26:36.341Z,132.13
2023-02-15T17:29:24.515Z,103.50
2023-02-15T17:31:53.803Z,96.80
2023-02-15T17:34:49.237Z,99.97
2023-02-15T17:37:25.612Z,103.73
2023-02-15T17:39:53.397Z,101.53
2023-02-15T17:42:20.834Z,89.80
2023-02-15T17:44:49.071Z,91.03
2023-02-15T17:47:22.856Z,88.70
2023-02-15T17:49:52.982Z,81.83
2023-02-15T17:52:20.258Z,78.60
2023-02-15T17:55:06.127Z,114.73
2023-02-15T17:57:33.873Z,85.10
2023-02-15T18:00:19.762Z,94.20
2023-02-15T18:03:06.740Z,95.47
2023-02-15T18:05:52.530Z,96.03
2023-02-15T18:08:46.262Z,206.97
2023-02-15T18:11:32.464Z,171.50
2023-02-15T18:14:01.779Z,111.77
2023-02-15T18:16:37.002Z,101.23
2023-02-15T18:19:06.436Z,105.50
2023-02-15T18:21:34.310Z,113.03
2023-02-15T18:24:02.736Z,112.23
2023-02-15T18:26:30.740Z,97.73
2023-02-15T18:28:57.973Z,93.80
2023-02-15T18:31:26.188Z,81.00
2023-02-15T18:34:00.326Z,85.13
2023-02-15T18:36:43.231Z,91.53
2023-02-15T18:39:36.804Z,122.40
2023-02-15T18:42:05.438Z,165.60
2023-02-15T18:44:32.747Z,159.40
2023-02-15T18:47:00.655Z,148.00
2023-02-15T18:49:27.963Z,138.67
2023-02-15T18:51:55.454Z,120.50
2023-02-15T18:54:25.759Z,108.50
2023-02-15T18:56:58.914Z,109.50
2023-02-15T18:59:27.938Z,124.40
2023-02-15T19:01:57.598Z,112.83
2023-02-15T19:04:25.900Z,103.63
2023-02-15T19:06:54.607Z,90.67
2023-02-15T19:09:24.958Z,76.83
2023-02-15T19:11:55.238Z,84.03
2023-02-15T19:14:26.734Z,117.73
2023-02-15T19:16:54.494Z,122.10
2023-02-15T19:19:22.350Z,124.20
2023-02-15T19:21:50.379Z,122.20
2023-02-15T19:24:25.208Z,104.93
2023-02-15T19:26:53.058Z,100.77
2023-02-15T19:29:26.559Z,107.33
2023-02-15T19:31:53.932Z,128.57
2023-02-15T19:34:21.659Z,184.03
2023-02-15T19:36:54.659Z,175.23
2023-02-15T19:39:33.277Z,106.67
2023-02-15T19:42:00.620Z,74.67
2023-02-15T19:44:28.060Z,79.80
2023-02-15T19:46:55.428Z,101.93
2023-02-15T19:49:22.610Z,93.77
2023-02-15T19:51:49.967Z,98.50
2023-02-15T19:54:20.683Z,105.40
2023-02-15T19:56:47.891Z,96.80
2023-02-15T19:59:27.324Z,116.57
2023-02-15T20:01:55.205Z,136.43
2023-02-15T20:04:23.577Z,107.33
2023-02-15T20:06:52.804Z,105.53
2023-02-15T20:09:29.809Z,97.40
2023-02-15T20:11:57.330Z,84.37
2023-02-15T20:14:25.224Z,72.80
2023-02-15T20:16:52.596Z,90.97
2023-02-15T20:19:20.419Z,112.87
2023-02-15T20:21:55.102Z,112.27
2023-02-15T20:24:31.496Z,92.47
2023-02-15T20:27:02.436Z,80.57
2023-02-15T20:29:29.721Z,75.97
2023-02-15T20:32:01.422Z,71.70
2023-02-15T20:34:28.853Z,65.93
2023-02-15T20:36:56.121Z,71.13
2023-02-15T20:39:23.537Z,87.60
2023-02-15T20:41:50.741Z,83.80
2023-02-15T20:44:27.133Z,120.77
2023-02-15T20:46:56.330Z,83.57
2023-02-15T20:49:25.819Z,85.27
2023-02-15T20:51:55.565Z,71.70
2023-02-15T20:54:27.510Z,74.73
2023-02-15T20:56:54.892Z,68.73
2023-02-15T20:59:27.916Z,77.50
2023-02-15T21:02:00.315Z,63.77
2023-02-15T21:04:32.084Z,67.13
2023-02-15T21:07:01.135Z,57.97
2023-02-15T21:09:29.144Z,59.13
2023-02-15T21:11:58.699Z,61.70
2023-02-15T21:14:28.587Z,60.47
2023-02-15T21:16:55.928Z,71.70
2023-02-15T21:19:24.807Z,106.73
2023-02-15T21:21:53.470Z,110.33
2023-02-15T21:24:26.993Z,95.43
2023-02-15T21:26:56.700Z,86.17
2023-02-15T21:29:26.526Z,80.97
2023-02-15T21:31:54.035Z,89.03
2023-02-15T21:34:21.930Z,78.70
2023-02-15T21:36:51.007Z,79.43
2023-02-15T21:39:30.041Z,71.63
2023-02-15T21:42:16.537Z,64.43
2023-02-15T21:45:02.636Z,64.77
2023-02-15T21:47:50.684Z,62.93
2023-02-15T21:50:42.667Z,59.23
2023-02-15T21:53:20.146Z,71.27
2023-02-15T21:55:47.478Z,64.07
2023-02-15T21:58:24.544Z,69.23
2023-02-15T22:00:55.049Z,63.97
2023-02-15T22:03:34.298Z,69.90
2023-02-15T22:06:02.153Z,71.30
2023-02-15T22:08:29.828Z,69.47
2023-02-15T22:10:57.492Z,66.87
2023-02-15T22:13:27.499Z,72.00
2023-02-15T22:15:55.564Z,75.83
2023-02-15T22:18:28.955Z,68.60
2023-02-15T22:20:57.591Z,75.53
2023-02-15T22:23:24.820Z,74.40
2023-02-15T22:26:02.710Z,69.83
2023-02-15T22:28:38.964Z,65.07
2023-02-15T22:31:12.805Z,63.47
2023-02-15T22:33:40.496Z,58.13
2023-02-15T22:36:17.869Z,66.13
2023-02-15T22:38:45.048Z,63.17
2023-02-15T22:41:12.619Z,59.97
2023-02-15T22:43:42.426Z,58.27
2023-02-15T22:46:16.778Z,62.20
2023-02-15T22:48:46.627Z,64.40
2023-02-15T22:51:15.440Z,71.90
2023-02-15T22:53:42.987Z,61.30
2023-02-15T22:56:26.500Z,75.63
2023-02-15T22:59:02.242Z,59.93
2023-02-15T23:01:35.625Z,62.30
2023-02-15T23:04:04.224Z,56.90
2023-02-15T23:06:32.348Z,59.97
2023-02-15T23:09:00.936Z,61.93
2023-02-15T23:11:28.649Z,55.07
2023-02-15T23:13:56.277Z,48.80
2023-02-15T23:16:23.539Z,47.40
2023-02-15T23:18:51.495Z,46.23
2023-02-15T23:21:21.031Z,50.27
2023-02-15T23:23:52.314Z,87.83
2023-02-15T23:26:25.337Z,76.47
2023-02-15T23:28:53.177Z,74.47
2023-02-15T23:31:26.352Z,70.70
2023-02-15T23:33:54.167Z,60.83
2023-02-15T23:36:39.263Z,54.40
2023-02-15T23:39:36.243Z,50.20
2023-02-15T23:42:18.906Z,47.10
2023-02-15T23:44:47.336Z,46.20
2023-02-15T23:47:44.429Z,47.33
2023-02-15T23:50:17.852Z,53.33
2023-02-15T23:52:45.090Z,60.57
2023-02-15T23:55:16.057Z,57.93
2023-02-15T23:57:44.396Z,58.57
